Time;durP1;ratioP1;P1;durP2;ratioP2;P2;SDS_P1;SDS_P2;PMS_P1;PMS_P2;Temp;Humidity;BMP_temperature;BMP_pressure;BME280_temperature;BME280_humidity;BME280_pressure;Samples;Min_cycle;Max_cycle;Signal;HPM_P1;HPM_P2
2022/04/23 00:00:30;;;;;;;7.10;6.50;;;;;;;31.20;56.04;100848.00;5041828;28;70451;-41
2022/04/23 00:03:02;;;;;;;8.88;6.50;;;;;;;31.27;55.73;100842.53;5042712;28;65058;-39
2022/04/23 00:05:33;;;;;;;10.68;6.20;;;;;;;31.37;55.88;100859.13;5042148;28;69588;-38
2022/04/23 00:08:04;;;;;;;8.13;6.97;;;;;;;31.33;56.46;100847.03;5041471;28;66928;-38
2022/04/23 00:10:35;;;;;;;13.95;7.43;;;;;;;31.44;56.24;100859.88;5056995;28;70355;-39
2022/04/23 00:13:06;;;;;;;16.80;7.38;;;;;;;31.48;57.87;100866.53;5040574;28;66447;-38
2022/04/23 00:15:37;;;;;;;28.55;9.68;;;;;;;31.48;61.05;100877.38;5040791;28;71549;-40
2022/04/23 00:18:09;;;;;;;20.95;10.30;;;;;;;31.48;61.82;100882.78;5041632;28;66220;-39
2022/04/23 00:20:40;;;;;;;;;;;;;;;31.13;66.51;100896.84;5033714;28;69976;-40
2022/04/23 00:23:10;;;;;;;21.15;10.80;;;;;;;31.44;63.99;100897.00;5039465;28;66584;-39
2022/04/23 00:25:44;;;;;;;21.70;11.23;;;;;;;31.05;63.76;100833.97;5039777;28;69766;-37
2022/04/23 00:28:14;;;;;;;26.05;8.80;;;;;;;31.45;63.87;100899.47;5039781;28;67127;-38
2022/04/23 00:30:45;;;;;;;23.55;10.32;;;;;;;31.50;64.70;100896.94;5041773;28;69545;-37
2022/04/23 00:33:16;;;;;;;16.58;9.20;;;;;;;31.57;63.15;100900.41;5023614;28;67283;-40
2022/04/23 00:35:50;;;;;;;9.15;7.13;;;;;;;31.54;63.78;100887.31;5036821;28;69783;-36
2022/04/23 00:38:21;;;;;;;20.52;8.98;;;;;;;31.71;63.29;100906.53;5034356;28;64800;-37
2022/04/23 00:40:52;;;;;;;27.10;9.65;;;;;;;31.75;62.83;100906.91;5040467;28;69331;-37
2022/04/23 00:43:28;;;;;;;10.02;8.30;;;;;;;31.80;63.00;100907.88;5039112;28;66079;-36
2022/04/23 00:45:58;;;;;;;8.90;7.60;;;;;;;31.84;62.44;100908.25;5035116;28;69789;-38
2022/04/23 00:48:30;;;;;;;10.25;7.57;;;;;;;31.86;62.43;100911.56;5039631;28;65797;-37
2022/04/23 00:51:01;;;;;;;14.13;7.00;;;;;;;31.82;62.21;100899.53;5041182;28;71332;-38
2022/04/23 00:53:33;;;;;;;;;;;;;;;31.61;63.89;100920.59;5038260;28;66077;-38
2022/04/23 00:56:03;;;;;;;7.40;6.30;;;;;;;31.94;62.52;100919.44;5039560;28;70307;-38
2022/04/23 00:58:36;;;;;;;6.93;6.33;;;;;;;31.99;62.22;100922.31;5040376;28;66067;-37
2022/04/23 01:01:06;;;;;;;11.50;6.93;;;;;;;32.04;61.79;100917.03;5039980;28;70122;-37
2022/04/23 01:03:39;;;;;;;6.60;6.00;;;;;;;32.04;61.93;100911.59;5039753;28;65607;-38
2022/04/23 01:06:11;;;;;;;7.40;6.18;;;;;;;32.10;61.46;100922.59;5039875;28;70152;-37
2022/04/23 01:08:41;;;;;;;;;;;;;;;31.78;63.03;100926.25;5041391;28;66387;-38
2022/04/23 01:11:12;;;;;;;5.93;5.45;;;;;;;32.11;61.17;100929.69;5041636;28;70516;-38
2022/04/23 01:13:44;;;;;;;6.28;5.68;;;;;;;32.17;61.01;100923.34;5041994;28;65193;-37
2022/04/23 01:16:14;;;;;;;7.22;6.53;;;;;;;32.19;60.80;100926.66;5040871;28;70313;-38
2022/04/23 01:18:45;;;;;;;6.00;5.50;;;;;;;32.20;60.74;100928.31;5041562;28;66430;-38
2022/04/23 01:21:16;;;;;;;5.80;5.25;;;;;;;32.15;60.53;100909.16;5041713;28;70817;-39
2022/04/23 01:23:53;;;;;;;7.13;5.85;;;;;;;32.24;60.90;100924.91;5040272;28;65438;-38
2022/04/23 01:26:29;;;;;;;6.25;5.75;;;;;;;31.86;60.41;100857.31;5041005;28;69331;-38
2022/04/23 01:29:00;;;;;;;9.23;5.75;;;;;;;32.32;60.38;100936.50;5029658;28;66116;-39
2022/04/23 01:31:32;;;;;;;5.60;5.17;;;;;;;32.27;60.34;100923.63;5072903;28;69524;-38
2022/04/23 01:34:04;;;;;;;;;;;;;;;32.02;61.07;100924.56;5041701;28;66589;-36
2022/04/23 01:36:34;;;;;;;5.72;5.25;;;;;;;32.28;60.11;100917.13;5040462;28;70119;-37
2022/04/23 01:39:05;;;;;;;6.78;6.07;;;;;;;32.27;59.69;100908.16;5041229;28;66230;-37
2022/04/23 01:41:36;;;;;;;6.20;5.63;;;;;;;32.41;59.94;100930.53;5040095;28;69723;-39
2022/04/23 01:44:07;;;;;;;6.20;5.50;;;;;;;32.37;59.63;100923.06;5039846;28;65387;-37
2022/04/23 01:46:38;;;;;;;5.78;5.28;;;;;;;32.46;59.45;100928.00;5040779;28;69913;-38
2022/04/23 01:49:08;;;;;;;8.63;5.93;;;;;;;32.40;59.04;100911.75;5041330;28;66141;-37
2022/04/23 01:51:39;;;;;;;8.23;5.57;;;;;;;32.49;59.21;100927.53;5040021;28;70551;-38
2022/04/23 01:54:10;;;;;;;6.13;5.65;;;;;;;32.54;58.85;100923.28;5041116;28;67242;-37
2022/04/23 01:56:40;;;;;;;6.43;5.88;;;;;;;32.45;58.93;100910.00;5039108;28;69693;-37
2022/04/23 01:59:11;;;;;;;5.93;5.35;;;;;;;32.57;58.57;100929.09;5038702;28;66317;-38
2022/04/23 02:01:42;;;;;;;5.50;5.20;;;;;;;32.59;58.86;100926.13;5039242;28;70105;-36
2022/04/23 02:04:13;;;;;;;8.68;5.50;;;;;;;32.24;58.63;100867.09;5038850;28;66162;-36
2022/04/23 02:06:44;;;;;;;7.55;5.15;;;;;;;32.52;58.76;100906.41;5039114;28;70515;-37
2022/04/23 02:09:15;;;;;;;5.95;5.45;;;;;;;32.61;58.42;100922.13;5039333;28;65651;-38
2022/04/23 02:11:45;;;;;;;6.50;5.90;;;;;;;32.55;58.13;100904.06;5041076;28;70130;-37
2022/04/23 02:14:16;;;;;;;6.32;5.80;;;;;;;32.70;58.01;100934.31;5041089;28;66578;-38
2022/04/23 02:16:47;;;;;;;5.57;5.03;;;;;;;32.75;57.82;100932.81;5040700;28;70646;-38
2022/04/23 02:19:17;;;;;;;5.47;5.07;;;;;;;32.77;58.23;100930.69;5033117;28;66127;-37
2022/04/23 02:21:49;;;;;;;6.03;5.53;;;;;;;32.75;57.76;100928.19;5028806;28;71418;-39
2022/04/23 02:24:19;;;;;;;6.47;5.33;;;;;;;32.81;57.66;100929.97;5036657;28;65467;-39
2022/04/23 02:26:50;;;;;;;6.57;4.70;;;;;;;32.79;57.37;100921.25;5037568;28;69964;-38
2022/04/23 02:29:21;;;;;;;5.55;5.05;;;;;;;32.87;57.42;100934.47;5038105;28;66453;-38
2022/04/23 02:31:51;;;;;;;5.70;5.20;;;;;;;32.77;57.43;100903.53;5020317;28;69274;-38
2022/04/23 02:34:22;;;;;;;6.30;5.80;;;;;;;32.87;57.26;100920.91;5037539;28;65891;-38
2022/04/23 02:36:53;;;;;;;5.68;5.18;;;;;;;32.94;57.14;100929.78;5038527;28;70135;-37
2022/04/23 02:39:23;;;;;;;5.25;4.85;;;;;;;32.92;56.82;100912.88;5038003;28;65442;-38
2022/04/23 02:41:54;;;;;;;5.88;5.15;;;;;;;32.88;56.91;100898.13;5037346;28;69681;-39
2022/04/23 02:44:25;;;;;;;5.03;4.53;;;;;;;33.00;56.95;100911.75;5038002;28;66077;-38
2022/04/23 02:46:56;;;;;;;6.20;5.00;;;;;;;33.03;56.58;100916.72;5034174;28;70365;-38
2022/04/23 02:49:27;;;;;;;6.00;5.23;;;;;;;32.98;56.82;100907.56;5035071;28;66210;-38
2022/04/23 02:51:58;;;;;;;5.30;4.85;;;;;;;33.07;56.51;100907.03;5037551;28;70420;-40
2022/04/23 02:54:28;;;;;;;5.80;5.30;;;;;;;33.10;56.66;100913.91;5037376;28;66529;-39
2022/04/23 02:57:00;;;;;;;7.60;4.85;;;;;;;33.12;56.56;100906.31;5033925;28;70537;-39
2022/04/23 02:59:32;;;;;;;5.40;4.90;;;;;;;33.15;56.43;100905.84;5035502;28;66032;-38
2022/04/23 03:02:03;;;;;;;6.95;4.97;;;;;;;33.17;56.04;100901.00;5037643;28;70013;-39
2022/04/23 03:04:35;;;;;;;5.65;5.15;;;;;;;33.15;56.05;100892.25;5037273;28;65836;-38
2022/04/23 03:07:06;;;;;;;5.30;4.83;;;;;;;33.19;56.12;100893.47;5039926;28;69968;-38
2022/04/23 03:09:37;;;;;;;8.00;5.25;;;;;;;33.23;55.73;100882.94;5036704;28;66164;-38
2022/04/23 03:12:09;;;;;;;5.57;5.13;;;;;;;33.09;55.97;100868.75;5037220;28;71001;-39
2022/04/23 03:14:40;;;;;;;5.72;5.13;;;;;;;33.24;55.73;100879.13;5037376;28;65896;-38
2022/04/23 03:17:11;;;;;;;5.22;4.93;;;;;;;33.23;55.69;100878.31;5035776;28;69898;-38
2022/04/23 03:19:42;;;;;;;5.18;4.78;;;;;;;33.30;55.62;100889.91;5037440;28;66513;-39
2022/04/23 03:22:16;;;;;;;6.13;4.97;;;;;;;33.34;55.63;100882.09;5030498;28;70402;-38
2022/04/23 03:24:47;;;;;;;5.43;4.97;;;;;;;33.35;55.49;100886.50;5034180;28;65572;-37
2022/04/23 03:27:18;;;;;;;5.40;4.75;;;;;;;33.34;55.61;100879.38;5033770;28;70397;-37
2022/04/23 03:29:49;;;;;;;6.78;5.00;;;;;;;33.37;55.37;100877.00;5035931;28;66170;-38
2022/04/23 03:32:21;;;;;;;7.13;5.05;;;;;;;33.36;55.42;100877.25;5033365;28;70057;-39
2022/04/23 03:34:52;;;;;;;5.93;5.43;;;;;;;33.37;55.52;100874.28;5022706;28;65787;-37
2022/04/23 03:37:23;;;;;;;5.75;5.18;;;;;;;33.39;55.33;100876.78;5030349;28;70173;-37
2022/04/23 03:39:54;;;;;;;7.05;4.63;;;;;;;33.42;55.26;100875.47;5031404;28;66294;-38
2022/04/23 03:42:24;;;;;;;5.93;5.43;;;;;;;33.40;55.29;100867.53;5033729;28;69935;-38
2022/04/23 03:44:55;;;;;;;5.13;4.72;;;;;;;33.46;55.12;100871.22;5034930;28;65562;-38
2022/04/23 03:47:26;;;;;;;5.00;4.60;;;;;;;33.47;55.38;100872.88;5037620;28;70902;-38
2022/04/23 03:50:07;;;;;;;5.55;4.85;;;;;;;33.51;55.04;100868.59;5036772;28;66656;-38
2022/04/23 03:52:38;;;;;;;5.22;4.82;;;;;;;33.40;54.81;100834.09;5034575;28;69954;-38
2022/04/23 03:55:11;;;;;;;5.40;5.00;;;;;;;33.42;54.69;100838.22;5038360;28;66253;-40
2022/04/23 03:57:49;;;;;;;7.25;4.97;;;;;;;33.56;54.79;100850.53;5037390;28;70201;-40
2022/04/23 04:00:21;;;;;;;5.10;4.70;;;;;;;33.45;54.72;100817.91;5037453;28;65745;-37
2022/04/23 04:02:53;;;;;;;;;;;;;;;33.26;55.42;100834.34;5037933;28;70038;-38
2022/04/23 04:05:25;;;;;;;5.32;4.95;;;;;;;33.58;54.61;100831.28;5038678;28;66304;-39
2022/04/23 04:07:56;;;;;;;5.23;4.87;;;;;;;33.60;54.78;100834.59;5042435;28;69774;-39
2022/04/23 04:10:26;;;;;;;5.07;4.70;;;;;;;33.63;54.57;100823.22;5038439;28;66182;-38
2022/04/23 04:12:57;;;;;;;5.60;5.20;;;;;;;33.68;54.90;100825.19;5035098;28;69980;-38
2022/04/23 04:15:27;;;;;;;6.55;5.95;;;;;;;33.64;54.64;100808.53;5034959;28;66517;-39
2022/04/23 04:17:58;;;;;;;5.45;4.95;;;;;;;33.51;54.24;100781.56;5027829;28;70146;-38
2022/04/23 04:20:32;;;;;;;4.82;4.50;;;;;;;33.71;54.04;100820.13;5024129;28;65733;-38
2022/04/23 04:23:02;;;;;;;8.30;4.90;;;;;;;33.76;54.19;100816.66;5034164;28;69438;-38
2022/04/23 04:25:35;;;;;;;5.13;4.72;;;;;;;33.78;54.02;100815.34;5035815;28;66185;-38
2022/04/23 04:28:05;;;;;;;8.80;4.57;;;;;;;33.79;53.88;100822.47;5040112;28;70119;-39
2022/04/23 04:33:25;;;;;;;5.25;4.85;;;;;;;33.81;54.22;100803.97;5024083;28;69314;-38
2022/04/23 04:35:56;;;;;;;4.95;4.65;;;;;;;33.86;54.07;100813.34;5041741;28;65834;-38
2022/04/23 04:38:27;;;;;;;5.45;5.05;;;;;;;33.90;53.88;100806.31;5038136;28;70056;-38
2022/04/23 04:40:58;;;;;;;5.15;4.82;;;;;;;33.89;53.95;100788.34;5039982;28;65787;-39
2022/04/23 04:43:29;;;;;;;5.57;5.18;;;;;;;33.90;53.49;100792.72;5035950;28;69189;-38
2022/04/23 04:46:00;;;;;;;4.80;4.40;;;;;;;33.85;53.86;100781.72;5035101;28;65373;-38
2022/04/23 04:48:31;;;;;;;6.00;4.57;;;;;;;33.94;53.91;100785.72;5035538;28;70113;-38
2022/04/23 04:51:02;;;;;;;8.53;5.33;;;;;;;33.96;54.01;100786.28;5036773;28;66403;-39
2022/04/23 04:53:33;;;;;;;4.72;4.43;;;;;;;33.95;53.74;100776.47;5024143;28;70512;-38
2022/04/23 04:56:05;;;;;;;5.10;4.70;;;;;;;34.00;53.62;100776.59;5023479;28;66025;-39
2022/04/23 04:58:36;;;;;;;4.60;4.30;;;;;;;34.03;53.58;100781.53;5019194;28;69855;-38
2022/04/23 05:01:07;;;;;;;4.47;4.18;;;;;;;33.99;53.25;100762.16;5026001;28;66380;-38
2022/04/23 05:03:40;;;;;;;5.35;4.80;;;;;;;34.05;53.45;100765.81;5026099;28;69194;-38
2022/04/23 05:06:11;;;;;;;4.82;4.53;;;;;;;33.96;53.55;100746.31;5025931;28;66392;-39
2022/04/23 05:08:42;;;;;;;7.20;4.38;;;;;;;34.02;53.49;100749.97;5031286;28;70517;-38
2022/04/23 05:11:12;;;;;;;5.13;4.75;;;;;;;34.10;53.43;100754.19;5037507;28;66377;-39
2022/04/23 05:13:43;;;;;;;4.53;4.23;;;;;;;34.12;53.28;100752.88;5030620;28;69671;-38
2022/04/23 05:16:14;;;;;;;4.80;4.50;;;;;;;34.05;53.18;100738.59;5032374;28;67188;-39
2022/04/23 05:18:45;;;;;;;5.50;5.10;;;;;;;33.88;53.21;100697.75;5027248;28;71399;-38
2022/04/23 05:21:16;;;;;;;4.82;4.40;;;;;;;34.20;53.14;100736.13;5029915;28;65387;-39
2022/04/23 05:23:46;;;;;;;6.57;4.50;;;;;;;34.21;52.88;100729.63;5034401;28;69842;-39
2022/04/23 05:26:18;;;;;;;5.80;4.95;;;;;;;34.22;53.16;100728.56;5031878;28;66256;-38
2022/04/23 05:28:49;;;;;;;4.93;4.55;;;;;;;34.22;53.05;100716.84;5036555;28;70256;-37
2022/04/23 05:31:21;;;;;;;5.28;4.72;;;;;;;34.28;52.90;100710.41;5040462;28;65422;-38
2022/04/23 05:33:51;;;;;;;7.13;4.35;;;;;;;34.24;53.08;100704.63;5038965;28;69917;-38
2022/04/23 05:36:22;;;;;;;5.57;5.18;;;;;;;34.30;52.98;100711.00;5040397;28;66327;-39
2022/04/23 05:38:55;;;;;;;5.03;4.68;;;;;;;34.34;52.99;100697.69;5041852;28;69234;-38
2022/04/23 05:41:25;;;;;;;5.10;4.80;;;;;;;34.26;52.59;100680.69;5041533;28;66052;-39
2022/04/23 05:43:56;;;;;;;5.82;5.43;;;;;;;34.35;52.98;100688.44;5041239;28;70632;-38
2022/04/23 05:46:28;;;;;;;4.93;4.57;;;;;;;34.18;52.69;100659.31;5040671;28;66158;-38
2022/04/23 05:49:00;;;;;;;5.30;5.00;;;;;;;34.39;52.85;100689.59;5039661;28;70203;-38
2022/04/23 05:51:30;;;;;;;8.52;4.97;;;;;;;34.38;52.50;100683.34;5041029;28;65953;-38
2022/04/23 05:54:01;;;;;;;4.82;4.53;;;;;;;34.16;52.87;100642.44;5040716;28;69311;-37
2022/04/23 05:56:33;;;;;;;5.55;5.05;;;;;;;34.44;52.61;100671.44;5040458;28;66121;-39
2022/04/23 05:59:03;;;;;;;5.57;5.15;;;;;;;34.44;52.56;100676.06;5040825;28;70079;-38
2022/04/23 06:01:34;;;;;;;6.78;4.70;;;;;;;34.44;52.55;100655.09;5041465;28;66616;-38
2022/04/23 06:04:05;;;;;;;4.87;4.47;;;;;;;34.36;52.45;100638.38;5040227;28;69392;-38
2022/04/23 06:06:37;;;;;;;6.15;4.82;;;;;;;34.50;52.62;100639.66;5040901;28;66259;-39
2022/04/23 06:09:08;;;;;;;4.90;4.60;;;;;;;34.61;52.41;100651.56;5039863;28;70607;-38
2022/04/23 06:11:39;;;;;;;5.47;4.45;;;;;;;34.63;52.19;100642.06;5039938;28;65295;-38
2022/04/23 06:14:10;;;;;;;5.00;4.63;;;;;;;34.63;52.09;100636.63;5041705;28;69885;-39
2022/04/23 06:16:40;;;;;;;5.15;4.75;;;;;;;34.58;52.17;100616.66;5041039;28;66574;-41
2022/04/23 06:19:12;;;;;;;5.35;4.95;;;;;;;34.67;51.94;100626.84;5040638;28;69975;-41
2022/04/23 06:21:42;;;;;;;5.80;5.32;;;;;;;34.75;51.87;100632.94;5041261;28;66637;-39
2022/04/23 06:24:13;;;;;;;5.17;4.87;;;;;;;34.78;51.99;100632.44;5041232;28;69994;-38
2022/04/23 06:26:46;;;;;;;5.57;5.10;;;;;;;34.83;51.93;100629.78;5040218;28;66669;-41
2022/04/23 06:29:17;;;;;;;5.18;4.78;;;;;;;34.85;52.15;100614.81;5040259;28;69774;-40
2022/04/23 06:31:48;;;;;;;5.45;4.95;;;;;;;34.89;51.82;100606.97;5037900;28;66429;-37
2022/04/23 06:34:20;;;;;;;5.78;5.28;;;;;;;34.91;51.93;100610.25;5040708;28;69904;-38
2022/04/23 06:36:50;;;;;;;5.53;4.88;;;;;;;34.96;51.58;100596.66;5040668;28;65540;-38
2022/04/23 06:39:21;;;;;;;5.55;5.15;;;;;;;34.92;52.13;100587.38;5027855;28;69923;-39
2022/04/23 06:41:52;;;;;;;5.20;4.80;;;;;;;34.93;51.42;100580.84;5019505;28;66089;-38
2022/04/23 06:44:23;;;;;;;4.95;4.65;;;;;;;35.02;51.40;100578.47;5018356;28;68821;-40
2022/04/23 06:46:53;;;;;;;5.28;4.88;;;;;;;35.11;51.44;100588.72;5019729;28;66493;-39
2022/04/23 06:49:27;;;;;;;5.55;4.97;;;;;;;35.13;51.59;100578.38;5036706;28;70060;-38
2022/04/23 06:51:57;;;;;;;4.85;4.45;;;;;;;35.19;51.72;100567.50;5029424;28;66260;-39
2022/04/23 06:54:28;;;;;;;5.40;5.03;;;;;;;35.08;51.10;100542.88;5020154;28;70627;-38
2022/04/23 06:56:59;;;;;;;4.95;4.65;;;;;;;35.22;51.20;100548.75;5023498;28;66482;-36
2022/04/23 06:59:33;;;;;;;5.38;4.88;;;;;;;35.28;50.67;100549.63;5022604;28;69991;-37
2022/04/23 07:02:04;;;;;;;5.80;5.30;;;;;;;35.21;50.94;100527.19;5033688;28;65981;-38
2022/04/23 07:04:36;;;;;;;5.85;5.35;;;;;;;35.32;50.83;100556.19;5030173;28;69883;-38
2022/04/23 07:07:10;;;;;;;6.07;5.03;;;;;;;35.32;51.43;100550.72;5037196;28;66165;-38
2022/04/23 07:09:41;;;;;;;5.05;4.70;;;;;;;35.32;50.91;100540.63;5017363;28;70056;-38
2022/04/23 07:12:12;;;;;;;8.20;5.22;;;;;;;35.43;51.04;100535.28;5037216;28;65281;-37
2022/04/23 07:14:42;;;;;;;5.37;4.87;;;;;;;35.43;51.38;100525.19;5037963;28;70792;-38
2022/04/23 07:17:13;;;;;;;6.93;5.43;;;;;;;35.44;51.32;100529.59;5040123;28;66209;-38
2022/04/23 07:19:44;;;;;;;12.00;5.40;;;;;;;35.46;51.81;100530.13;5038664;28;71144;-38
2022/04/23 07:22:15;;;;;;;6.22;4.68;;;;;;;35.46;51.60;100529.31;5037271;28;65175;-37
2022/04/23 07:24:48;;;;;;;6.57;5.65;;;;;;;35.43;51.15;100518.91;5022028;28;70197;-38
2022/04/23 07:27:18;;;;;;;5.55;5.15;;;;;;;35.41;51.66;100516.47;5018853;28;65299;-36
2022/04/23 07:29:50;;;;;;;5.30;4.87;;;;;;;35.49;51.40;100529.59;5023273;28;71029;-37
2022/04/23 07:32:21;;;;;;;5.32;3.92;;;;;;;35.51;51.66;100532.91;5004762;28;66069;-38
2022/04/23 07:37:41;;;;;;;4.68;4.28;;;;;;;35.54;51.60;100515.19;5020145;28;66569;-38
2022/04/23 07:40:14;;;;;;;7.93;4.75;;;;;;;35.47;51.47;100499.06;5022008;28;68999;-37
2022/04/23 07:42:46;;;;;;;5.00;4.53;;;;;;;35.54;51.95;100518.72;5010448;28;65987;-36
2022/04/23 07:45:17;;;;;;;5.25;4.70;;;;;;;35.57;51.97;100528.34;5040529;28;69305;-36
2022/04/23 07:47:49;;;;;;;7.68;4.00;;;;;;;35.57;51.62;100537.34;5036660;28;65863;-37
2022/04/23 07:50:19;;;;;;;7.28;4.05;;;;;;;35.54;51.95;100532.38;5024089;28;70057;-38
2022/04/23 07:52:51;;;;;;;7.70;4.20;;;;;;;35.53;51.85;100522.56;5039703;28;66107;-36
2022/04/23 07:55:22;;;;;;;4.32;3.97;;;;;;;35.57;51.53;100520.16;5032698;28;69326;-37
2022/04/23 07:57:53;;;;;;;4.50;4.10;;;;;;;35.60;52.19;100529.72;5032153;28;64506;-37
2022/04/23 08:00:24;;;;;;;7.72;4.68;;;;;;;35.33;51.89;100492.41;5037873;28;70833;-37
2022/04/23 08:02:55;;;;;;;6.00;4.10;;;;;;;35.60;51.71;100551.53;5040689;28;67024;-37
2022/04/23 08:05:26;;;;;;;;;;;;;;;35.31;52.19;100551.81;5028107;28;69549;-37
2022/04/23 08:07:57;;;;;;;22.52;4.85;;;;;;;35.57;51.93;100548.25;5035802;28;66200;-37
2022/04/23 08:10:28;;;;;;;15.38;4.68;;;;;;;35.48;51.39;100538.88;5040763;28;70148;-36
2022/04/23 08:12:58;;;;;;;9.93;4.57;;;;;;;35.57;51.03;100542.78;5041094;28;66303;-37
2022/04/23 08:15:29;;;;;;;15.70;4.15;;;;;;;35.60;51.59;100551.53;5023780;28;70693;-37
2022/04/23 08:18:01;;;;;;;13.90;4.63;;;;;;;35.57;50.84;100550.97;5030123;28;66113;-37
2022/04/23 08:20:32;;;;;;;7.68;4.95;;;;;;;35.49;51.69;100537.78;5031420;28;69578;-36
2022/04/23 08:23:03;;;;;;;6.93;4.50;;;;;;;34.98;51.85;100463.69;5042078;28;65499;-36
2022/04/23 08:25:34;;;;;;;7.20;4.30;;;;;;;35.33;51.55;100536.03;5041537;28;70410;-37
2022/04/23 08:30:54;;;;;;;18.17;4.55;;;;;;;35.28;52.02;100539.53;5042741;28;70509;-37
2022/04/23 08:33:57;;;;;;;5.53;3.80;;;;;;;35.25;51.81;100544.69;5040950;28;67547;-39
2022/04/23 08:36:15;;;;;;;10.32;4.80;;;;;;;35.19;51.92;100540.25;5030786;28;70606;-37
2022/04/23 08:38:46;;;;;;;9.20;4.47;;;;;;;35.12;51.95;100530.38;5021905;28;66344;-38
2022/04/23 08:41:17;;;;;;;5.70;4.32;;;;;;;35.12;52.38;100533.09;5040220;28;69234;-36
2022/04/23 08:43:48;;;;;;;7.20;5.20;;;;;;;35.16;52.15;100532.56;5042202;28;66603;-38
2022/04/23 08:46:18;;;;;;;12.03;5.00;;;;;;;34.98;51.89;100499.13;5042774;28;69957;-37
2022/04/23 08:48:53;;;;;;;9.43;5.03;;;;;;;35.07;51.76;100505.78;5041423;28;65164;-37
2022/04/23 08:51:30;;;;;;;14.13;5.90;;;;;;;35.00;52.25;100483.34;5041788;28;68924;-36
2022/04/23 08:54:09;;;;;;;12.80;5.75;;;;;;;35.06;52.18;100504.16;5042376;28;66464;-37
2022/04/23 08:56:45;;;;;;;7.70;4.78;;;;;;;34.99;52.57;100483.59;5038194;28;70026;-37
2022/04/23 08:59:16;;;;;;;16.00;4.97;;;;;;;34.98;52.60;100479.22;5024271;28;66012;-39
2022/04/23 09:01:51;;;;;;;5.85;4.55;;;;;;;34.99;52.87;100492.59;5032793;28;69903;-38
2022/04/23 09:04:22;;;;;;;11.27;5.10;;;;;;;34.97;52.85;100488.50;5024706;28;66211;-37
2022/04/23 09:06:56;;;;;;;17.90;5.03;;;;;;;34.96;53.37;100484.94;5021600;28;69347;-36
2022/04/23 09:09:27;;;;;;;15.85;5.00;;;;;;;34.89;53.32;100474.25;5038513;28;67771;-37
2022/04/23 09:11:59;;;;;;;9.27;4.72;;;;;;;34.46;53.65;100418.75;5042599;28;69376;-37
2022/04/23 09:14:34;;;;;;;11.10;5.38;;;;;;;34.94;53.66;100498.00;5023416;28;64844;-37
2022/04/23 09:25:49;;;;;;;39.63;8.00;;;;;;;34.88;54.75;100471.75;5041231;28;66389;-38
2022/04/23 09:28:23;;;;;;;63.15;8.40;;;;;;;34.46;54.96;100407.03;5040039;28;70115;-37
2022/04/23 09:30:54;;;;;;;38.17;7.53;;;;;;;34.89;55.17;100485.16;5041893;28;66223;-37
2022/04/23 09:33:43;;;;;;;53.55;7.70;;;;;;;34.83;56.32;100490.81;5037743;28;69937;-36
2022/04/23 09:36:14;;;;;;;27.63;7.45;;;;;;;34.88;56.06;100496.28;5041127;28;67172;-38
2022/04/23 09:39:03;;;;;;;39.92;6.90;;;;;;;34.62;57.39;100474.22;5040904;28;69909;-36
2022/04/23 09:41:35;;;;;;;28.17;6.97;;;;;;;34.88;56.75;100508.03;5040720;28;66301;-37
2022/04/23 09:44:12;;;;;;;22.42;6.88;;;;;;;34.91;57.53;100506.72;5039538;28;70181;-35
2022/04/23 09:46:52;;;;;;;26.60;6.43;;;;;;;34.86;57.64;100509.38;5040590;28;65372;-37
2022/04/23 09:49:32;;;;;;;26.27;6.47;;;;;;;34.87;58.31;100503.66;5041096;28;70474;-37
2022/04/23 09:52:11;;;;;;;24.35;6.72;;;;;;;34.67;58.10;100468.84;5025130;28;66636;-37
2022/04/23 09:54:42;;;;;;;17.70;5.90;;;;;;;34.87;57.58;100498.19;5029537;28;69638;-37
2022/04/23 09:57:13;;;;;;;13.93;7.97;;;;;;;34.80;58.68;100507.66;5037267;28;66072;-36
2022/04/23 09:59:44;;;;;;;16.77;13.73;;;;;;;34.84;58.39;100522.41;5029247;28;71176;-37
2022/04/23 10:02:21;;;;;;;35.90;19.73;;;;;;;34.56;58.34;100477.97;5036605;28;66266;-35
2022/04/23 10:04:57;;;;;;;33.55;22.00;;;;;;;34.78;59.02;100523.44;5027772;28;69594;-36
2022/04/23 10:07:29;;;;;;;40.67;27.45;;;;;;;34.50;58.34;100456.38;5021356;28;66223;-36
2022/04/23 10:10:06;;;;;;;46.67;31.88;;;;;;;34.78;58.42;100523.44;5032463;28;69250;-37
2022/04/23 10:12:44;;;;;;;35.20;29.45;;;;;;;34.64;58.45;100523.84;5035936;28;43240;-36
2022/04/23 10:15:15;;;;;;;31.90;27.05;;;;;;;34.58;58.73;100541.22;5024528;28;70094;-38
2022/04/23 10:17:48;;;;;;;31.83;26.02;;;;;;;34.21;58.65;100492.78;5018732;28;66653;-36
2022/04/23 10:20:20;;;;;;;32.30;27.10;;;;;;;34.58;58.81;100563.00;5039985;28;69691;-36
2022/04/23 10:22:52;;;;;;;;;;;;;;;34.20;59.99;100564.63;5040435;28;65063;-36
2022/04/23 10:25:50;;;;;;;21.80;19.38;;;;;;;34.39;59.28;100564.34;5040355;28;70304;-37
2022/04/23 10:28:21;;;;;;;18.52;16.30;;;;;;;34.43;59.05;100576.38;5038666;28;66264;-35
2022/04/23 10:31:15;;;;;;;15.47;13.83;;;;;;;34.28;59.68;100578.91;5040108;28;69976;-36
2022/04/23 10:33:54;;;;;;;14.05;12.60;;;;;;;34.30;58.93;100576.72;5038850;28;65590;-35
2022/04/23 10:36:25;;;;;;;11.95;10.10;;;;;;;34.32;59.20;100585.47;5055490;28;70215;-36
2022/04/23 10:39:19;;;;;;;15.35;11.52;;;;;;;34.22;59.79;100580.72;5037577;28;66734;-35
2022/04/23 10:41:53;;;;;;;24.67;8.93;;;;;;;33.99;60.04;100565.38;5029105;28;70357;-36
2022/04/23 10:44:30;;;;;;;9.57;8.40;;;;;;;33.81;59.96;100531.91;5026720;28;66632;-37
2022/04/23 10:47:11;;;;;;;10.52;7.10;;;;;;;33.78;59.45;100512.56;5031621;28;69266;-36
2022/04/23 10:49:43;;;;;;;;;;;;;;;33.94;60.35;100590.63;5039335;28;66538;-36
2022/04/23 10:52:35;;;;;;;8.73;7.55;;;;;;;34.17;59.51;100589.63;5040401;28;70074;-36
2022/04/23 10:55:07;;;;;;;11.32;7.05;;;;;;;33.93;59.55;100544.59;5039457;28;66207;-36
2022/04/23 10:57:39;;;;;;;7.38;6.78;;;;;;;34.34;59.07;100605.13;5040635;28;69426;-36
2022/04/23 11:00:12;;;;;;;7.50;6.43;;;;;;;33.89;59.21;100527.94;5038506;28;66158;-38
2022/04/23 11:02:47;;;;;;;11.30;6.90;;;;;;;33.85;58.61;100520.53;5039961;28;70495;-36
2022/04/23 11:14:44;;;;;;;8.00;6.35;;;;;;;34.40;58.78;100643.06;5041226;28;70553;-35
2022/04/23 11:17:37;;;;;;;7.60;6.05;;;;;;;34.40;59.67;100647.69;5044139;28;66357;-38
2022/04/23 11:20:11;;;;;;;6.93;6.30;;;;;;;34.39;59.29;100640.59;5032917;28;70215;-37
2022/04/23 11:22:42;;;;;;;8.63;6.40;;;;;;;34.40;60.20;100645.78;5037470;28;65671;-35
2022/04/23 11:25:15;;;;;;;6.63;5.90;;;;;;;34.28;60.45;100655.94;5025214;28;70507;-36
2022/04/23 11:27:48;;;;;;;6.90;6.35;;;;;;;34.10;60.35;100635.28;5026176;28;66034;-36
2022/04/23 11:30:29;;;;;;;12.48;6.20;;;;;;;34.16;61.01;100669.66;5038588;28;70498;-35
2022/04/23 11:33:10;;;;;;;14.05;6.00;;;;;;;34.02;59.36;100681.91;5024031;28;66541;-37
2022/04/23 11:35:42;;;;;;;8.02;5.93;;;;;;;33.85;57.92;100679.19;5029975;28;70264;-37
2022/04/23 11:38:26;;;;;;;6.65;5.72;;;;;;;33.63;56.57;100684.50;5033516;28;65488;-38
2022/04/23 11:40:57;;;;;;;6.38;5.88;;;;;;;33.50;55.92;100679.31;5040372;28;70091;-38
2022/04/23 11:43:30;;;;;;;8.32;6.18;;;;;;;33.29;54.75;100676.22;5031468;28;66394;-37
2022/04/23 11:46:05;;;;;;;9.25;4.93;;;;;;;32.21;54.11;100536.47;5032857;28;70406;-37
2022/04/23 11:48:48;;;;;;;10.00;5.00;;;;;;;32.77;53.07;100665.31;5027750;28;66255;-37
2022/04/23 11:51:21;;;;;;;7.25;4.50;;;;;;;32.87;53.11;100711.69;5028566;28;70923;-38
2022/04/23 11:54:00;;;;;;;4.82;4.28;;;;;;;32.78;52.18;100724.00;5032212;28;65625;-37
2022/04/23 11:56:36;;;;;;;5.00;4.47;;;;;;;32.68;51.53;100731.91;5032400;28;69252;-37
2022/04/23 11:59:10;;;;;;;7.22;4.20;;;;;;;32.57;51.12;100739.00;5026631;28;66461;-40
2022/04/23 12:01:44;;;;;;;4.45;4.05;;;;;;;32.41;50.39;100732.34;5035269;28;68880;-37
2022/04/23 12:04:16;;;;;;;4.90;4.10;;;;;;;32.37;50.21;100741.19;5033391;28;65716;-38
2022/04/23 12:06:47;;;;;;;4.65;4.25;;;;;;;32.27;49.93;100760.78;5015857;28;70272;-36
2022/04/23 12:09:18;;;;;;;4.72;3.70;;;;;;;31.87;50.06;100717.91;5037965;28;66354;-36
2022/04/23 12:11:59;;;;;;;5.47;3.30;;;;;;;32.13;49.15;100783.75;5030513;28;69539;-39
2022/04/23 12:14:30;;;;;;;4.93;3.65;;;;;;;32.15;49.35;100781.59;5030175;28;66165;-41